createdAt,value
2023-05-21T00:00:04.591Z,943.98
2023-05-21T00:05:03.431Z,943.98
2023-05-21T00:10:05.095Z,943.86
2023-05-21T00:15:03.539Z,943.84
2023-05-21T00:20:04.537Z,943.88
2023-05-21T00:25:03.300Z,943.90
2023-05-21T00:30:04.391Z,943.90
2023-05-21T00:35:03.448Z,943.82
2023-05-21T00:40:04.532Z,943.72
2023-05-21T00:45:03.314Z,943.72
2023-05-21T00:50:04.312Z,943.59
2023-05-21T00:55:03.388Z,943.39
2023-05-21T01:00:04.661Z,943.33
2023-05-21T01:05:03.409Z,943.35
2023-05-21T01:10:04.718Z,943.31
2023-05-21T01:15:03.445Z,943.41
2023-05-21T01:20:04.996Z,943.65
2023-05-21T01:25:03.587Z,943.78
2023-05-21T01:30:04.545Z,943.90
2023-05-21T01:35:03.475Z,943.70
2023-05-21T01:40:04.515Z,943.72
2023-05-21T01:45:03.389Z,943.63
2023-05-21T01:50:04.749Z,943.49
2023-05-21T01:55:03.403Z,943.39
2023-05-21T02:00:04.936Z,943.31
2023-05-21T02:05:04.702Z,943.41
2023-05-21T02:10:04.694Z,943.70
2023-05-21T02:15:03.175Z,943.84
2023-05-21T02:20:04.555Z,943.78
2023-05-21T02:25:03.463Z,943.70
2023-05-21T02:30:05.578Z,943.70
2023-05-21T02:35:03.505Z,943.94
2023-05-21T02:40:04.426Z,944.00
2023-05-21T02:45:03.241Z,943.88
2023-05-21T02:50:04.507Z,943.76
2023-05-21T02:55:03.251Z,943.65
2023-05-21T03:00:04.589Z,943.86
2023-05-21T03:05:03.472Z,943.70
2023-05-21T03:10:04.470Z,943.72
2023-05-21T03:15:03.212Z,943.84
2023-05-21T03:20:04.531Z,943.82
2023-05-21T03:25:03.296Z,943.86
2023-05-21T03:30:06.608Z,943.80
2023-05-21T03:35:03.412Z,943.74
2023-05-21T03:40:04.518Z,943.70
2023-05-21T03:45:03.186Z,943.61
2023-05-21T03:50:04.484Z,943.49
2023-05-21T03:55:03.462Z,943.51
2023-05-21T04:00:04.719Z,943.33
2023-05-21T04:05:03.415Z,943.21
2023-05-21T04:10:05.039Z,943.21
2023-05-21T04:15:04.507Z,943.23
2023-05-21T04:20:04.408Z,943.08
2023-05-21T04:25:03.470Z,943.00
2023-05-21T04:30:04.387Z,942.90
2023-05-21T04:35:03.479Z,942.92
2023-05-21T04:40:04.648Z,943.02
2023-05-21T04:45:03.375Z,943.04
2023-05-21T04:50:04.502Z,942.96
2023-05-21T04:55:03.314Z,942.92
2023-05-21T05:00:04.449Z,942.92
2023-05-21T05:05:03.327Z,942.94
2023-05-21T05:10:04.413Z,943.02
2023-05-21T05:15:03.214Z,943.04
2023-05-21T05:20:04.574Z,942.98
2023-05-21T05:25:03.447Z,942.98
2023-05-21T05:30:04.388Z,942.94
2023-05-21T05:35:03.268Z,942.92
2023-05-21T05:40:04.391Z,942.86
2023-05-21T05:45:03.608Z,942.88
2023-05-21T05:50:04.513Z,942.98
2023-05-21T05:55:03.299Z,943.08
2023-05-21T06:00:04.569Z,943.21
2023-05-21T06:05:03.344Z,943.23
2023-05-21T06:10:04.680Z,943.14
2023-05-21T06:15:03.442Z,943.02
2023-05-21T06:20:04.552Z,942.88
2023-05-21T06:25:03.295Z,942.90
2023-05-21T06:30:04.369Z,942.92
2023-05-21T06:35:03.355Z,942.78
2023-05-21T06:40:04.408Z,942.72
2023-05-21T06:45:03.387Z,942.63
2023-05-21T06:50:04.561Z,942.61
2023-05-21T06:55:03.273Z,942.61
2023-05-21T07:00:04.567Z,942.65
2023-05-21T07:05:03.301Z,942.63
2023-05-21T07:10:04.420Z,942.51
2023-05-21T07:15:03.146Z,942.43
2023-05-21T07:20:09.543Z,942.37
2023-05-21T07:25:03.231Z,942.35
2023-05-21T07:30:04.563Z,942.35
2023-05-21T07:35:03.322Z,942.31
2023-05-21T07:40:04.403Z,942.33
2023-05-21T07:45:03.408Z,942.35
2023-05-21T07:50:04.460Z,942.41
2023-05-21T07:55:03.508Z,942.37
2023-05-21T08:00:04.549Z,942.31
2023-05-21T08:05:03.428Z,942.29
2023-05-21T08:10:04.394Z,942.35
2023-05-21T08:15:03.309Z,942.35
2023-05-21T08:20:04.480Z,942.31
2023-05-21T08:25:03.252Z,942.23
2023-05-21T08:30:04.517Z,942.21
2023-05-21T08:35:03.331Z,942.17
2023-05-21T08:40:04.390Z,942.15
2023-05-21T08:45:03.360Z,942.10
2023-05-21T08:50:04.493Z,942.06
2023-05-21T08:55:03.224Z,942.06
2023-05-21T09:00:04.560Z,942.02
2023-05-21T09:05:03.435Z,942.02
2023-05-21T09:10:04.319Z,942.00
2023-05-21T09:15:03.348Z,941.92
2023-05-21T09:20:04.476Z,941.90
2023-05-21T09:25:03.455Z,941.96
2023-05-21T09:30:04.549Z,941.96
2023-05-21T09:35:03.303Z,942.00
2023-05-21T09:40:04.419Z,942.04
2023-05-21T09:45:03.351Z,942.11
2023-05-21T09:50:04.482Z,942.13
2023-05-21T09:55:03.396Z,942.17
2023-05-21T10:00:05.561Z,942.27
2023-05-21T10:05:03.258Z,942.33
2023-05-21T10:10:06.624Z,942.39
2023-05-21T10:15:03.297Z,942.51
2023-05-21T10:20:04.381Z,942.59
2023-05-21T10:25:03.201Z,942.59
2023-05-21T10:30:04.494Z,942.59
2023-05-21T10:35:03.310Z,942.63
2023-05-21T10:40:04.433Z,942.66
2023-05-21T10:45:03.331Z,942.76
2023-05-21T10:50:04.661Z,942.88
2023-05-21T10:55:03.177Z,942.80
2023-05-21T11:00:04.470Z,942.78
2023-05-21T11:05:03.308Z,942.94
2023-05-21T11:10:04.419Z,943.06
2023-05-21T11:15:04.594Z,943.04
2023-05-21T11:20:04.482Z,943.10
2023-05-21T11:25:04.340Z,943.10
2023-05-21T11:30:04.342Z,943.08
2023-05-21T11:35:03.239Z,943.10
2023-05-21T11:40:04.374Z,943.16
2023-05-21T11:45:03.403Z,943.21
2023-05-21T11:50:04.484Z,943.27
2023-05-21T11:55:03.474Z,943.25
2023-05-21T12:00:09.533Z,943.16
2023-05-21T12:05:03.305Z,943.12
2023-05-21T12:10:04.591Z,943.16
2023-05-21T12:15:03.411Z,943.14
2023-05-21T12:20:04.465Z,943.10
2023-05-21T12:25:03.371Z,943.12
2023-05-21T12:30:04.535Z,943.23
2023-05-21T12:35:03.315Z,943.39
2023-05-21T12:40:04.670Z,943.51
2023-05-21T12:45:03.352Z,943.59
2023-05-21T12:50:04.654Z,943.61
2023-05-21T12:55:03.550Z,943.68
2023-05-21T13:00:04.541Z,943.72
2023-05-21T13:05:03.375Z,943.74
2023-05-21T13:10:04.634Z,943.65
2023-05-21T13:15:03.387Z,943.61
2023-05-21T13:20:04.595Z,943.47
2023-05-21T13:25:03.437Z,943.51
2023-05-21T13:30:04.668Z,943.68
2023-05-21T13:35:03.275Z,943.66
2023-05-21T13:40:04.889Z,943.59
2023-05-21T13:45:03.411Z,943.59
2023-05-21T13:50:04.656Z,943.45
2023-05-21T13:55:03.589Z,943.45
2023-05-21T14:00:04.910Z,943.43
2023-05-21T14:05:03.330Z,943.35
2023-05-21T14:10:04.418Z,943.20
2023-05-21T14:15:03.376Z,943.02
2023-05-21T14:20:04.598Z,942.94
2023-05-21T14:25:03.400Z,942.88
2023-05-21T14:30:04.505Z,942.78
2023-05-21T14:35:03.499Z,942.72
2023-05-21T14:40:04.618Z,942.72
2023-05-21T14:45:17.295Z,942.70
2023-05-21T14:50:04.416Z,942.57
2023-05-21T14:55:03.374Z,942.53
2023-05-21T15:00:04.464Z,942.51
2023-05-21T15:05:03.302Z,942.49
2023-05-21T15:10:04.518Z,942.37
2023-05-21T15:15:03.307Z,942.37
2023-05-21T15:20:04.439Z,942.45
2023-05-21T15:25:03.387Z,942.47
2023-05-21T15:30:04.732Z,942.43
2023-05-21T15:35:03.322Z,942.43
2023-05-21T15:40:04.730Z,942.39
2023-05-21T15:45:03.284Z,942.31
2023-05-21T15:50:04.381Z,942.25
2023-05-21T15:55:03.333Z,942.19
2023-05-21T16:00:04.567Z,942.17
2023-05-21T16:05:03.210Z,942.10
2023-05-21T16:10:04.550Z,942.02
2023-05-21T16:15:03.406Z,941.92
2023-05-21T16:20:04.411Z,941.68
2023-05-21T16:25:03.423Z,941.49
2023-05-21T16:30:04.492Z,941.33
2023-05-21T16:35:03.290Z,941.25
2023-05-21T16:40:04.612Z,941.11
2023-05-21T16:45:03.280Z,941.08
2023-05-21T16:50:04.371Z,941.09
2023-05-21T16:55:03.417Z,941.11
2023-05-21T17:00:04.484Z,941.11
2023-05-21T17:05:03.304Z,941.13
2023-05-21T17:10:04.514Z,941.15
2023-05-21T17:15:03.402Z,941.13
2023-05-21T17:20:05.665Z,941.08
2023-05-21T17:25:03.452Z,941.04
2023-05-21T17:30:04.488Z,941.09
2023-05-21T17:35:03.417Z,941.02
2023-05-21T17:40:04.645Z,940.84
2023-05-21T17:45:03.292Z,940.80
2023-05-21T17:50:04.603Z,940.84
2023-05-21T17:55:03.328Z,941.02
2023-05-21T18:00:04.473Z,940.88
2023-05-21T18:05:03.185Z,940.74
2023-05-21T18:10:04.573Z,940.64
2023-05-21T18:15:03.308Z,940.66
2023-05-21T18:20:06.636Z,940.70
2023-05-21T18:25:03.391Z,940.72
2023-05-21T18:30:04.684Z,940.76
2023-05-21T18:35:03.172Z,940.86
2023-05-21T18:40:04.985Z,940.86
2023-05-21T18:45:03.293Z,940.90
2023-05-21T18:50:04.481Z,941.02
2023-05-21T18:55:03.364Z,941.04
2023-05-21T19:00:09.537Z,941.06
2023-05-21T19:05:03.295Z,941.09
2023-05-21T19:10:04.580Z,941.15
2023-05-21T19:15:03.275Z,941.11
2023-05-21T19:20:04.591Z,941.15
2023-05-21T19:25:03.437Z,941.21
2023-05-21T19:30:04.803Z,941.25
2023-05-21T19:35:03.227Z,941.33
2023-05-21T19:40:04.795Z,941.43
2023-05-21T19:45:03.320Z,941.55
2023-05-21T19:50:04.435Z,941.57
2023-05-21T19:55:03.308Z,941.55
2023-05-21T20:00:04.496Z,941.59
2023-05-21T20:05:03.428Z,941.72
2023-05-21T20:10:04.678Z,941.82
2023-05-21T20:15:03.278Z,942.04
2023-05-21T20:20:04.567Z,942.19
2023-05-21T20:25:03.407Z,942.39
2023-05-21T20:30:04.277Z,942.47
2023-05-21T20:35:04.048Z,942.53
2023-05-21T20:40:04.417Z,942.55
2023-05-21T20:45:03.344Z,942.51
2023-05-21T20:50:04.762Z,942.63
2023-05-21T20:55:03.452Z,942.94
2023-05-21T21:00:04.657Z,942.88
2023-05-21T21:05:03.515Z,942.19
2023-05-21T21:10:04.800Z,942.72
2023-05-21T21:15:03.530Z,942.78
2023-05-21T21:20:04.711Z,942.49
2023-05-21T21:25:03.372Z,942.29
2023-05-21T21:30:04.513Z,942.21
2023-05-21T21:35:03.421Z,942.29
2023-05-21T21:40:05.741Z,942.39
2023-05-21T21:45:03.747Z,942.33
2023-05-21T21:50:04.841Z,942.19
2023-05-21T21:55:03.367Z,942.27
2023-05-21T22:00:04.827Z,942.31
2023-05-21T22:05:03.932Z,942.25
2023-05-21T22:10:04.784Z,942.11
2023-05-21T22:15:03.609Z,942.11
2023-05-21T22:20:05.149Z,942.10
2023-05-21T22:25:03.554Z,942.08
2023-05-21T22:30:05.468Z,942.17
2023-05-21T22:35:03.920Z,942.13
2023-05-21T22:40:05.285Z,942.08
2023-05-21T22:45:03.833Z,942.11
2023-05-21T22:50:05.478Z,942.21
2023-05-21T22:55:03.877Z,942.21
2023-05-21T23:00:04.893Z,942.15
2023-05-21T23:05:04.163Z,942.13
2023-05-21T23:10:05.070Z,942.25
2023-05-21T23:15:03.843Z,942.39
2023-05-21T23:20:05.237Z,942.55
2023-05-21T23:25:03.956Z,942.59
2023-05-21T23:30:05.912Z,942.55
2023-05-21T23:35:03.847Z,942.47
2023-05-21T23:40:05.173Z,942.41
2023-05-21T23:45:03.863Z,942.35
2023-05-21T23:50:05.043Z,942.37
2023-05-21T23:55:03.572Z,942.49
